Terminal Aerodrome Forecast
Issued by NWS

Home | Current Version | Previous Version | Text Only | Print | Product List | Glossary On
Versions: 1 2 3 4 5 6 7 8 9 10 11 12 13 14 15 16 17 18 19 20 21 22 23 24 25 26 27 28 29 30 31 32 33 34 35 36 37 38 39 40 41 42 43 44 45 46 47 48 49 50
000
FTUS42 KRAH 021259 AAA
TAFRWI
TAF AMD
KRWI 021259Z 0213/0312 00000KT 1/2SM FG BKN002
      TEMPO 0213/0214 5SM BR SCT003
     FM021400 VRB05KT P6SM SCT050
     FM030700 VRB03KT 5SM BR SCT005=

USA.gov is the U.S. government's official web portal to all federal, state and local government web resources and services.